createdAt,value
2019-01-12T00:00:16.196Z,1003.8
2019-01-12T00:01:16.210Z,1003.81
2019-01-12T00:02:16.229Z,1003.81
2019-01-12T00:03:16.251Z,1003.82
2019-01-12T00:04:16.267Z,1003.83
2019-01-12T00:05:16.283Z,1003.78
2019-01-12T00:06:16.302Z,1003.79
2019-01-12T00:07:16.320Z,1003.84
2019-01-12T00:08:16.337Z,1003.79
2019-01-12T00:09:16.356Z,1003.77
2019-01-12T00:10:16.379Z,1003.78
2019-01-12T00:11:16.393Z,1003.77
2019-01-12T00:12:16.411Z,1003.79
2019-01-12T00:13:16.433Z,1003.76
2019-01-12T00:14:16.450Z,1003.78
2019-01-12T00:15:16.466Z,1003.76
2019-01-12T00:16:16.490Z,1003.8
2019-01-12T00:17:16.503Z,1003.78
2019-01-12T00:18:16.522Z,1003.81
2019-01-12T00:19:16.543Z,1003.82
2019-01-12T00:20:16.557Z,1003.79
2019-01-12T00:21:16.578Z,1003.82
2019-01-12T00:22:16.595Z,1003.81
2019-01-12T00:23:16.613Z,1003.85
2019-01-12T00:24:16.631Z,1003.79
2019-01-12T00:25:16.650Z,1003.83
2019-01-12T00:26:16.671Z,1003.8
2019-01-12T00:27:16.686Z,1003.75
2019-01-12T00:28:16.704Z,1003.75
2019-01-12T00:29:16.723Z,1003.74
2019-01-12T00:30:16.740Z,1003.74
2019-01-12T00:31:16.759Z,1003.71
2019-01-12T00:32:16.776Z,1003.68
2019-01-12T00:33:16.797Z,1003.67
2019-01-12T00:34:16.814Z,1003.68
2019-01-12T00:35:16.833Z,1003.78
2019-01-12T00:36:16.851Z,1003.72
2019-01-12T00:37:16.873Z,1003.71
2019-01-12T00:38:16.888Z,1003.69
2019-01-12T00:39:16.907Z,1003.72
2019-01-12T00:40:16.925Z,1003.7
2019-01-12T00:41:16.947Z,1003.71
2019-01-12T00:42:16.962Z,1003.68
2019-01-12T00:43:16.984Z,1003.74
2019-01-12T00:44:17.001Z,1003.72
2019-01-12T00:45:17.015Z,1003.74
2019-01-12T00:46:17.035Z,1003.75
2019-01-12T00:47:17.054Z,1003.79
2019-01-12T00:48:17.074Z,1003.78
2019-01-12T00:49:17.089Z,1003.75
2019-01-12T00:50:17.107Z,1003.77
2019-01-12T00:51:17.126Z,1003.78
2019-01-12T00:52:17.147Z,1003.79
2019-01-12T00:53:17.162Z,1003.81
2019-01-12T00:54:17.182Z,1003.79
2019-01-12T00:55:17.198Z,1003.74
2019-01-12T00:56:17.218Z,1003.79
2019-01-12T00:57:17.237Z,1003.85
2019-01-12T00:58:17.254Z,1003.85
2019-01-12T00:59:17.272Z,1003.85
2019-01-12T01:00:17.290Z,1003.84
2019-01-12T01:01:17.313Z,1003.87
2019-01-12T01:02:17.331Z,1003.87
2019-01-12T01:03:17.345Z,1003.83
2019-01-12T01:04:17.367Z,1003.83
2019-01-12T01:05:17.386Z,1003.82
2019-01-12T01:06:17.400Z,1003.76
2019-01-12T01:07:17.418Z,1003.8
2019-01-12T01:08:17.438Z,1003.82
2019-01-12T01:09:17.462Z,1003.79
2019-01-12T01:10:17.477Z,1003.79
2019-01-12T01:11:17.492Z,1003.77
2019-01-12T01:12:17.515Z,1003.79
2019-01-12T01:13:17.530Z,1003.8
2019-01-12T01:14:17.545Z,1003.78
2019-01-12T01:15:17.564Z,1003.76
2019-01-12T01:16:17.582Z,1003.83
2019-01-12T01:17:17.601Z,1003.74
2019-01-12T01:18:17.623Z,1003.79
2019-01-12T01:19:17.637Z,1003.82
2019-01-12T01:20:17.658Z,1003.81
2019-01-12T01:21:17.679Z,1003.82
2019-01-12T01:22:17.693Z,1003.81
2019-01-12T01:23:17.715Z,1003.76
2019-01-12T01:24:17.730Z,1003.78
2019-01-12T01:25:17.748Z,1003.78
2019-01-12T01:26:17.770Z,1003.77
2019-01-12T01:27:17.784Z,1003.78
2019-01-12T01:28:17.802Z,1003.82
2019-01-12T01:29:17.820Z,1003.8
2019-01-12T01:30:17.839Z,1003.8
2019-01-12T01:31:17.863Z,1003.83
2019-01-12T01:32:17.876Z,1003.8
2019-01-12T01:33:17.894Z,1003.78
2019-01-12T01:34:17.912Z,1003.77
2019-01-12T01:35:17.937Z,1003.83
2019-01-12T01:36:17.948Z,1003.79
2019-01-12T01:37:17.968Z,1003.8
2019-01-12T01:38:17.985Z,1003.78
2019-01-12T01:39:18.003Z,1003.8
2019-01-12T01:40:18.024Z,1003.83
2019-01-12T01:41:18.041Z,1003.79
2019-01-12T01:42:18.062Z,1003.79
2019-01-12T01:43:18.076Z,1003.79
2019-01-12T01:44:18.098Z,1003.8
2019-01-12T01:45:18.117Z,1003.83
2019-01-12T01:46:18.132Z,1003.87
2019-01-12T01:47:18.153Z,1003.83
2019-01-12T01:48:18.167Z,1003.84
2019-01-12T01:49:18.186Z,1003.85
2019-01-12T01:50:18.205Z,1003.83
2019-01-12T01:51:18.223Z,1003.84
2019-01-12T01:52:18.240Z,1003.81
2019-01-12T01:53:18.262Z,1003.87
2019-01-12T01:54:18.278Z,1003.82
2019-01-12T01:55:18.302Z,1003.85
2019-01-12T01:56:18.314Z,1003.85
2019-01-12T01:57:18.332Z,1003.89
2019-01-12T01:58:18.349Z,1003.85
2019-01-12T01:59:18.371Z,1003.86
2019-01-12T02:00:18.388Z,1003.85
2019-01-12T02:01:18.408Z,1003.84
2019-01-12T02:02:18.423Z,1003.85
2019-01-12T02:03:18.593Z,1003.81
2019-01-12T02:04:18.461Z,1003.83
2019-01-12T02:05:18.479Z,1003.81
2019-01-12T02:06:18.497Z,1003.81
2019-01-12T02:07:18.515Z,1003.78
2019-01-12T02:08:18.538Z,1003.8
2019-01-12T02:09:18.558Z,1003.75
2019-01-12T02:10:18.571Z,1003.78
2019-01-12T02:11:18.591Z,1003.79
2019-01-12T02:12:18.607Z,1003.79
2019-01-12T02:13:18.625Z,1003.76
2019-01-12T02:14:18.644Z,1003.73
2019-01-12T02:15:18.666Z,1003.75
2019-01-12T02:16:18.685Z,1003.74
2019-01-12T02:17:18.704Z,1003.76
2019-01-12T02:18:18.717Z,1003.69
2019-01-12T02:19:18.739Z,1003.72
2019-01-12T02:20:18.753Z,1003.72
2019-01-12T02:21:18.777Z,1003.69
2019-01-12T02:22:18.793Z,1003.69
2019-01-12T02:23:18.811Z,1003.7
2019-01-12T02:24:18.827Z,1003.69
2019-01-12T02:25:18.847Z,1003.72
2019-01-12T02:26:18.869Z,1003.69
2019-01-12T02:27:18.886Z,1003.66
2019-01-12T02:28:18.901Z,1003.65
2019-01-12T02:29:18.923Z,1003.67
2019-01-12T02:30:18.940Z,1003.63
2019-01-12T02:31:18.955Z,1003.67
2019-01-12T02:32:18.974Z,1003.64
2019-01-12T02:33:18.998Z,1003.66
2019-01-12T02:34:19.011Z,1003.67
2019-01-12T02:35:19.030Z,1003.65
2019-01-12T02:36:19.050Z,1003.66
2019-01-12T02:37:19.078Z,1003.62
2019-01-12T02:38:19.087Z,1003.64
2019-01-12T02:39:19.104Z,1003.67
2019-01-12T02:40:19.122Z,1003.63
2019-01-12T02:41:19.136Z,1003.62
2019-01-12T02:42:19.156Z,1003.63
2019-01-12T02:43:19.176Z,1003.59
2019-01-12T02:44:19.198Z,1003.59
2019-01-12T02:45:19.210Z,1003.57
2019-01-12T02:46:19.231Z,1003.55
2019-01-12T02:47:19.249Z,1003.54
2019-01-12T02:48:19.270Z,1003.54
2019-01-12T02:49:19.284Z,1003.53
2019-01-12T02:50:19.305Z,1003.57
2019-01-12T02:51:19.324Z,1003.56
2019-01-12T02:52:19.341Z,1003.56
2019-01-12T02:53:19.358Z,1003.54
2019-01-12T02:54:19.375Z,1003.55
2019-01-12T02:55:19.394Z,1003.48
2019-01-12T02:56:19.411Z,1003.53
2019-01-12T02:57:19.434Z,1003.51
2019-01-12T02:58:19.448Z,1003.47
2019-01-12T02:59:19.466Z,1003.44
2019-01-12T03:00:19.487Z,1003.48
2019-01-12T03:01:19.507Z,1003.42
2019-01-12T03:02:19.521Z,1003.44
2019-01-12T03:03:19.539Z,1003.42
2019-01-12T03:04:19.561Z,1003.41
2019-01-12T03:05:19.580Z,1003.38
2019-01-12T03:06:19.623Z,1003.38
2019-01-12T03:07:19.612Z,1003.37
2019-01-12T03:08:19.630Z,1003.35
2019-01-12T03:09:19.648Z,1003.34
2019-01-12T03:10:19.666Z,1003.36
2019-01-12T03:11:19.688Z,1003.34
2019-01-12T03:12:19.702Z,1003.32
2019-01-12T03:13:19.721Z,1003.36
2019-01-12T03:14:19.740Z,1003.31
2019-01-12T03:15:19.759Z,1003.36
2019-01-12T03:16:19.777Z,1003.34
2019-01-12T03:17:19.795Z,1003.32
2019-01-12T03:18:19.811Z,1003.34
2019-01-12T03:19:19.830Z,1003.3
2019-01-12T03:20:19.849Z,1003.3
2019-01-12T03:21:19.871Z,1003.29
2019-01-12T03:22:19.886Z,1003.3
2019-01-12T03:23:19.904Z,1003.31
2019-01-12T03:24:19.922Z,1003.28
2019-01-12T03:25:19.948Z,1003.28
2019-01-12T03:26:19.962Z,1003.28
2019-01-12T03:27:19.976Z,1003.25
2019-01-12T03:28:19.996Z,1003.23
2019-01-12T03:29:20.013Z,1003.21
2019-01-12T03:30:20.066Z,1003.24
2019-01-12T03:31:20.051Z,1003.19
2019-01-12T03:32:20.073Z,1003.23
2019-01-12T03:33:20.105Z,1003.23
2019-01-12T03:34:20.104Z,1003.21
2019-01-12T03:35:20.122Z,1003.21
2019-01-12T03:36:20.140Z,1003.2
2019-01-12T03:37:20.158Z,1003.21
2019-01-12T03:38:20.226Z,1003.18
2019-01-12T03:39:20.302Z,1003.22
2019-01-12T03:40:20.214Z,1003.2
2019-01-12T03:41:20.233Z,1003.16
2019-01-12T03:42:20.249Z,1003.23
2019-01-12T03:43:20.271Z,1003.22
2019-01-12T03:44:20.284Z,1003.22
2019-01-12T03:45:20.310Z,1003.17
2019-01-12T03:46:20.321Z,1003.17
2019-01-12T03:47:20.340Z,1003.13
2019-01-12T03:48:20.358Z,1003.13
2019-01-12T03:49:20.380Z,1003.14
2019-01-12T03:50:20.401Z,1003.13
2019-01-12T03:51:20.413Z,1003.13
2019-01-12T03:52:20.431Z,1003.09
2019-01-12T03:53:20.453Z,1003.07
2019-01-12T03:54:20.467Z,1003.02
2019-01-12T03:55:25.336Z,1003.04
2019-01-12T03:56:20.504Z,1003.08
2019-01-12T03:57:20.527Z,1003.03
2019-01-12T03:58:20.543Z,1003.03
2019-01-12T03:59:20.558Z,1002.98
2019-01-12T04:00:20.578Z,1003.02
2019-01-12T04:01:20.595Z,1002.99
2019-01-12T04:02:20.611Z,1003.01
2019-01-12T04:03:20.631Z,1002.98
2019-01-12T04:04:20.648Z,1002.99
2019-01-12T04:05:20.666Z,1002.93
2019-01-12T04:06:20.691Z,1003.04
2019-01-12T04:07:20.707Z,1002.97
2019-01-12T04:08:20.721Z,1002.95
2019-01-12T04:09:20.741Z,1003.02
2019-01-12T04:10:20.758Z,1003
2019-01-12T04:11:20.785Z,1002.96
2019-01-12T04:12:20.797Z,1002.94
2019-01-12T04:13:20.815Z,1002.96
2019-01-12T04:14:20.829Z,1002.9
2019-01-12T04:15:20.848Z,1002.9
2019-01-12T04:16:20.870Z,1002.87
2019-01-12T04:17:20.883Z,1002.89
2019-01-12T04:18:20.899Z,1002.85
2019-01-12T04:19:20.920Z,1002.83
2019-01-12T04:20:20.937Z,1002.85
2019-01-12T04:21:20.958Z,1002.8
2019-01-12T04:22:20.974Z,1002.8
2019-01-12T04:23:20.996Z,1002.84
2019-01-12T04:24:21.018Z,1002.85
2019-01-12T04:25:21.028Z,1002.86
2019-01-12T04:26:21.045Z,1002.85
2019-01-12T04:27:21.063Z,1002.83
2019-01-12T04:28:21.084Z,1002.86
2019-01-12T04:29:21.103Z,1002.86
2019-01-12T04:30:21.118Z,1002.83
2019-01-12T04:31:21.136Z,1002.85
2019-01-12T04:32:21.154Z,1002.82
2019-01-12T04:33:21.180Z,1002.82
2019-01-12T04:34:21.191Z,1002.81
2019-01-12T04:35:21.224Z,1002.79
2019-01-12T04:36:21.230Z,1002.77
2019-01-12T04:37:21.245Z,1002.76
2019-01-12T04:38:21.273Z,1002.7
2019-01-12T04:39:21.281Z,1002.71
2019-01-12T04:40:21.298Z,1002.74
2019-01-12T04:41:21.320Z,1002.67
2019-01-12T04:42:21.338Z,1002.69
2019-01-12T04:43:21.355Z,1002.67
2019-01-12T04:44:21.370Z,1002.65
2019-01-12T04:45:21.389Z,1002.66
2019-01-12T04:46:21.405Z,1002.65
2019-01-12T04:47:21.428Z,1002.61
2019-01-12T04:48:21.441Z,1002.64
2019-01-12T04:49:21.459Z,1002.64
2019-01-12T04:50:21.479Z,1002.6
2019-01-12T04:51:21.495Z,1002.57
2019-01-12T04:52:21.513Z,1002.58
2019-01-12T04:53:21.535Z,1002.56
2019-01-12T04:54:21.550Z,1002.61
2019-01-12T04:55:21.567Z,1002.58
2019-01-12T04:56:21.591Z,1002.59
2019-01-12T04:57:21.641Z,1002.6
2019-01-12T04:58:21.623Z,1002.57
2019-01-12T04:59:21.641Z,1002.6
2019-01-12T05:00:21.657Z,1002.61
2019-01-12T05:01:21.678Z,1002.61
2019-01-12T05:02:21.694Z,1002.61
2019-01-12T05:03:21.720Z,1002.62
2019-01-12T05:04:21.733Z,1002.62
2019-01-12T05:05:21.753Z,1002.62
2019-01-12T05:06:21.782Z,1002.62
2019-01-12T05:07:21.789Z,1002.62
2019-01-12T05:08:21.802Z,1002.56
2019-01-12T05:09:21.820Z,1002.6
2019-01-12T05:10:21.840Z,1002.55
2019-01-12T05:11:21.855Z,1002.55
2019-01-12T05:12:21.877Z,1002.55
2019-01-12T05:13:21.895Z,1002.59
2019-01-12T05:14:21.913Z,1002.56
2019-01-12T05:15:21.929Z,1002.58
2019-01-12T05:16:21.949Z,1002.52
2019-01-12T05:17:21.965Z,1002.56
2019-01-12T05:18:21.982Z,1002.56
2019-01-12T05:19:22.000Z,1002.55
2019-01-12T05:20:22.027Z,1002.57
2019-01-12T05:21:22.036Z,1002.56
2019-01-12T05:22:22.053Z,1002.55
2019-01-12T05:23:22.073Z,1002.55
2019-01-12T05:24:22.088Z,1002.53
2019-01-12T05:25:22.112Z,1002.52
2019-01-12T05:26:22.129Z,1002.6
2019-01-12T05:27:22.150Z,1002.56
2019-01-12T05:28:22.167Z,1002.59
2019-01-12T05:29:22.178Z,1002.53
2019-01-12T05:30:22.199Z,1002.54
2019-01-12T05:31:22.214Z,1002.55
2019-01-12T05:32:22.238Z,1002.55
2019-01-12T05:33:22.251Z,1002.52
2019-01-12T05:34:22.270Z,1002.53
2019-01-12T05:35:22.296Z,1002.55
2019-01-12T05:36:22.306Z,1002.57
2019-01-12T05:37:22.322Z,1002.56
2019-01-12T05:38:22.342Z,1002.57
2019-01-12T05:39:22.360Z,1002.54
2019-01-12T05:40:22.379Z,1002.53
2019-01-12T05:41:22.394Z,1002.6
2019-01-12T05:42:22.418Z,1002.57
2019-01-12T05:43:22.476Z,1002.6
2019-01-12T05:44:22.446Z,1002.6
2019-01-12T05:45:22.470Z,1002.65
2019-01-12T05:46:22.484Z,1002.59
2019-01-12T05:47:22.503Z,1002.63
2019-01-12T05:48:22.519Z,1002.64
2019-01-12T05:49:22.544Z,1002.62
2019-01-12T05:50:22.558Z,1002.65
2019-01-12T05:51:22.573Z,1002.62
2019-01-12T05:52:22.590Z,1002.64
2019-01-12T05:53:22.610Z,1002.62
2019-01-12T05:54:22.628Z,1002.62
2019-01-12T05:55:22.649Z,1002.6
2019-01-12T05:56:22.662Z,1002.63
2019-01-12T05:57:22.685Z,1002.63
2019-01-12T05:58:22.704Z,1002.67
2019-01-12T05:59:22.716Z,1002.71
2019-01-12T06:00:22.736Z,1002.69
2019-01-12T06:01:22.756Z,1002.7
2019-01-12T06:02:22.770Z,1002.68
2019-01-12T06:03:22.790Z,1002.7
2019-01-12T06:04:22.807Z,1002.67
2019-01-12T06:05:22.827Z,1002.65
2019-01-12T06:06:22.840Z,1002.71
2019-01-12T06:07:22.858Z,1002.64
2019-01-12T06:08:22.877Z,1002.62
2019-01-12T06:09:22.895Z,1002.66
2019-01-12T06:10:22.912Z,1002.61
2019-01-12T06:11:22.930Z,1002.61
2019-01-12T06:12:22.950Z,1002.61
2019-01-12T06:13:22.967Z,1002.58
2019-01-12T06:14:22.983Z,1002.65
2019-01-12T06:15:23.001Z,1002.62
2019-01-12T06:16:23.024Z,1002.62
2019-01-12T06:17:23.036Z,1002.6
2019-01-12T06:18:23.054Z,1002.65
2019-01-12T06:19:23.073Z,1002.6
2019-01-12T06:20:23.092Z,1002.58
2019-01-12T06:21:23.108Z,1002.59
2019-01-12T06:22:23.131Z,1002.65
2019-01-12T06:23:23.146Z,1002.61
2019-01-12T06:24:23.162Z,1002.63
2019-01-12T06:25:23.238Z,1002.61
2019-01-12T06:26:23.208Z,1002.62
2019-01-12T06:27:23.220Z,1002.61
2019-01-12T06:28:23.233Z,1002.6
2019-01-12T06:29:23.251Z,1002.58
2019-01-12T06:30:23.269Z,1002.59
2019-01-12T06:31:23.288Z,1002.61
2019-01-12T06:32:23.309Z,1002.6
2019-01-12T06:33:23.326Z,1002.58
2019-01-12T06:34:23.345Z,1002.55
2019-01-12T06:35:23.362Z,1002.53
2019-01-12T06:36:23.377Z,1002.57
2019-01-12T06:37:23.395Z,1002.53
2019-01-12T06:38:23.418Z,1002.54
2019-01-12T06:39:23.434Z,1002.58
2019-01-12T06:40:23.448Z,1002.52
2019-01-12T06:41:23.468Z,1002.51
2019-01-12T06:42:23.485Z,1002.52
2019-01-12T06:43:23.501Z,1002.56
2019-01-12T06:44:23.519Z,1002.55
2019-01-12T06:45:23.537Z,1002.53
2019-01-12T06:46:23.554Z,1002.51
2019-01-12T06:47:23.574Z,1002.43
2019-01-12T06:48:23.592Z,1002.47
2019-01-12T06:49:23.609Z,1002.47
2019-01-12T06:50:23.631Z,1002.5
2019-01-12T06:51:23.645Z,1002.52
2019-01-12T06:52:23.662Z,1002.53
2019-01-12T06:53:23.682Z,1002.52
2019-01-12T06:54:23.698Z,1002.53
2019-01-12T06:55:23.716Z,1002.46
2019-01-12T06:56:23.734Z,1002.51
2019-01-12T06:57:23.757Z,1002.49
2019-01-12T06:58:23.775Z,1002.43
2019-01-12T06:59:23.789Z,1002.4
2019-01-12T07:00:23.808Z,1002.39
2019-01-12T07:01:23.824Z,1002.42
2019-01-12T07:02:23.842Z,1002.38
2019-01-12T07:03:23.868Z,1002.41
2019-01-12T07:04:23.886Z,1002.37
2019-01-12T07:05:23.895Z,1002.38
2019-01-12T07:06:23.913Z,1002.36
2019-01-12T07:07:23.936Z,1002.33
2019-01-12T07:08:23.953Z,1002.35
2019-01-12T07:09:23.968Z,1002.38
2019-01-12T07:10:23.987Z,1002.34
2019-01-12T07:11:24.004Z,1002.38
2019-01-12T07:12:24.025Z,1002.34
2019-01-12T07:13:24.039Z,1002.29
2019-01-12T07:14:24.060Z,1002.34
2019-01-12T07:15:24.077Z,1002.39
2019-01-12T07:16:24.092Z,1002.3
2019-01-12T07:17:24.110Z,1002.33
2019-01-12T07:18:24.132Z,1002.37
2019-01-12T07:19:24.150Z,1002.32
2019-01-12T07:20:24.165Z,1002.31
2019-01-12T07:21:24.187Z,1002.29
2019-01-12T07:22:24.200Z,1002.27
2019-01-12T07:23:24.220Z,1002.26
2019-01-12T07:24:24.235Z,1002.22
2019-01-12T07:25:24.255Z,1002.21
2019-01-12T07:26:24.271Z,1002.25
2019-01-12T07:27:24.289Z,1002.19
2019-01-12T07:28:24.308Z,1002.24
2019-01-12T07:29:24.327Z,1002.23
2019-01-12T07:30:24.349Z,1002.23
2019-01-12T07:31:24.365Z,1002.23
2019-01-12T07:32:24.384Z,1002.19
2019-01-12T07:33:24.397Z,1002.2
2019-01-12T07:34:24.415Z,1002.15
2019-01-12T07:35:24.437Z,1002.15
2019-01-12T07:36:24.455Z,1002.17
2019-01-12T07:37:24.472Z,1002.19
2019-01-12T07:38:24.485Z,1002.2
2019-01-12T07:39:24.504Z,1002.13
2019-01-12T07:40:24.527Z,1002.14
2019-01-12T07:41:24.541Z,1002.14
2019-01-12T07:42:24.560Z,1002.19
2019-01-12T07:43:24.584Z,1002.13
2019-01-12T07:44:24.598Z,1002.09
2019-01-12T07:45:24.613Z,1002.1
2019-01-12T07:46:24.635Z,1002.14
2019-01-12T07:47:24.647Z,1002.12
2019-01-12T07:48:24.665Z,1002.15
2019-01-12T07:49:24.683Z,1002.12
2019-01-12T07:50:24.701Z,1002.13
2019-01-12T07:51:24.723Z,1002.17
2019-01-12T07:52:24.739Z,1002.14
2019-01-12T07:53:24.755Z,1002.2
2019-01-12T07:54:24.774Z,1002.16
2019-01-12T07:55:24.792Z,1002.16
2019-01-12T07:56:24.878Z,1002.09
2019-01-12T07:57:24.834Z,1002.08
2019-01-12T07:58:24.845Z,1002.02
2019-01-12T07:59:24.863Z,1002.01
2019-01-12T08:00:24.881Z,1001.94
2019-01-12T08:01:24.904Z,1001.89
2019-01-12T08:02:24.922Z,1001.89
2019-01-12T08:03:24.937Z,1001.93
2019-01-12T08:04:24.956Z,1001.91
2019-01-12T08:05:24.975Z,1001.9
2019-01-12T08:06:25.038Z,1001.93
2019-01-12T08:07:25.006Z,1001.88
2019-01-12T08:08:25.026Z,1001.88
2019-01-12T08:09:25.042Z,1001.89
2019-01-12T08:10:25.063Z,1001.83
2019-01-12T08:11:25.081Z,1001.85
2019-01-12T08:12:25.099Z,1001.79
2019-01-12T08:13:25.118Z,1001.82
2019-01-12T08:14:25.131Z,1001.76
2019-01-12T08:15:25.149Z,1001.71
2019-01-12T08:16:25.167Z,1001.66
2019-01-12T08:17:25.186Z,1001.64
2019-01-12T08:18:25.201Z,1001.6
2019-01-12T08:19:25.221Z,1001.65
2019-01-12T08:20:25.243Z,1001.62
2019-01-12T08:21:25.255Z,1001.61
2019-01-12T08:22:25.275Z,1001.58
2019-01-12T08:23:25.293Z,1001.57
2019-01-12T08:24:25.315Z,1001.53
2019-01-12T08:25:25.326Z,1001.53
2019-01-12T08:26:31.122Z,1001.49
2019-01-12T08:27:25.364Z,1001.47
2019-01-12T08:28:25.386Z,1001.45
2019-01-12T08:29:25.405Z,1001.47
2019-01-12T08:30:25.417Z,1001.45
2019-01-12T08:31:25.440Z,1001.5
2019-01-12T08:32:25.453Z,1001.48
2019-01-12T08:33:25.476Z,1001.44
2019-01-12T08:34:25.490Z,1001.45
2019-01-12T08:35:25.508Z,1001.44
2019-01-12T08:36:25.525Z,1001.41
2019-01-12T08:37:25.544Z,1001.48
2019-01-12T08:38:25.566Z,1001.47
2019-01-12T08:39:25.585Z,1001.5
2019-01-12T08:40:25.601Z,1001.42
2019-01-12T08:41:25.614Z,1001.4
2019-01-12T08:42:27.099Z,1001.42
2019-01-12T08:43:25.654Z,1001.43
2019-01-12T08:44:25.671Z,1001.4
2019-01-12T08:45:25.686Z,1001.36
2019-01-12T08:46:25.705Z,1001.34
2019-01-12T08:47:25.722Z,1001.36
2019-01-12T08:48:25.739Z,1001.31
2019-01-12T08:49:25.758Z,1001.32
2019-01-12T08:50:25.775Z,1001.33
2019-01-12T08:51:25.794Z,1001.3
2019-01-12T08:52:25.812Z,1001.28
2019-01-12T08:53:25.833Z,1001.28
2019-01-12T08:54:25.851Z,1001.28
2019-01-12T08:55:25.864Z,1001.23
2019-01-12T08:56:25.886Z,1001.2
2019-01-12T08:57:25.904Z,1001.21
2019-01-12T08:58:25.921Z,1001.16
2019-01-12T08:59:25.936Z,1001.14
2019-01-12T09:00:25.956Z,1001.04
2019-01-12T09:01:25.970Z,1001.04
2019-01-12T09:02:25.989Z,1001.07
2019-01-12T09:03:26.011Z,1001.03
2019-01-12T09:04:26.025Z,1000.99
2019-01-12T09:05:26.048Z,1001.03
2019-01-12T09:06:26.063Z,1001.05
2019-01-12T09:07:26.081Z,1001.04
2019-01-12T09:08:26.096Z,1001.02
2019-01-12T09:09:26.111Z,1001.01
2019-01-12T09:10:26.130Z,1000.96
2019-01-12T09:11:26.150Z,1001.03
2019-01-12T09:12:26.166Z,1001.01
2019-01-12T09:13:26.183Z,1001.05
2019-01-12T09:14:26.207Z,1001.03
2019-01-12T09:15:26.222Z,1001.08
2019-01-12T09:16:26.241Z,1001.12
2019-01-12T09:17:26.255Z,1001.14
2019-01-12T09:18:26.272Z,1001.11
2019-01-12T09:19:26.291Z,1001.13
2019-01-12T09:20:26.311Z,1001.17
2019-01-12T09:21:26.325Z,1001.14
2019-01-12T09:22:26.347Z,1001.22
2019-01-12T09:23:26.363Z,1001.18
2019-01-12T09:24:26.382Z,1001.16
2019-01-12T09:25:26.396Z,1001.18
2019-01-12T09:26:26.414Z,1001.08
2019-01-12T09:27:26.432Z,1001.05
2019-01-12T09:28:26.450Z,1000.98
2019-01-12T09:29:26.468Z,1000.97
2019-01-12T09:30:26.485Z,1000.92
2019-01-12T09:31:26.503Z,1000.92
2019-01-12T09:32:26.521Z,1000.86
2019-01-12T09:33:26.537Z,1000.84
2019-01-12T09:34:26.555Z,1000.84
2019-01-12T09:35:26.573Z,1000.89
2019-01-12T09:36:26.591Z,1000.85
2019-01-12T09:37:26.613Z,1000.79
2019-01-12T09:38:26.627Z,1000.74
2019-01-12T09:39:26.646Z,1000.78
2019-01-12T09:40:26.662Z,1000.77
2019-01-12T09:41:26.680Z,1000.77
2019-01-12T09:42:26.700Z,1000.75
2019-01-12T09:43:26.724Z,1000.77
2019-01-12T09:44:26.737Z,1000.75
2019-01-12T09:45:26.750Z,1000.7
2019-01-12T09:46:26.769Z,1000.66
2019-01-12T09:47:26.791Z,1000.62
2019-01-12T09:48:26.807Z,1000.65
2019-01-12T09:49:26.820Z,1000.64
2019-01-12T09:50:26.842Z,1000.55
2019-01-12T09:51:26.861Z,1000.51
2019-01-12T09:52:26.874Z,1000.51
2019-01-12T09:53:26.892Z,1000.43
2019-01-12T09:54:26.910Z,1000.42
2019-01-12T09:55:26.927Z,1000.45
2019-01-12T09:56:26.948Z,1000.37
2019-01-12T09:57:26.965Z,1000.36
2019-01-12T09:58:26.979Z,1000.34
2019-01-12T09:59:27.116Z,1000.37
2019-01-12T10:00:27.018Z,1000.4
2019-01-12T10:01:27.045Z,1000.39
2019-01-12T10:02:27.050Z,1000.43
2019-01-12T10:03:27.069Z,1000.33
2019-01-12T10:04:27.085Z,1000.33
2019-01-12T10:05:27.110Z,1000.33
2019-01-12T10:06:27.122Z,1000.36
2019-01-12T10:07:27.139Z,1000.39
2019-01-12T10:08:27.160Z,1000.32
2019-01-12T10:09:27.176Z,1000.28
2019-01-12T10:10:27.192Z,1000.32
2019-01-12T10:11:27.210Z,1000.27
2019-01-12T10:12:27.231Z,1000.32
2019-01-12T10:13:27.244Z,1000.21
2019-01-12T10:14:27.262Z,1000.22
2019-01-12T10:15:27.279Z,1000.24
2019-01-12T10:16:27.301Z,1000.17
2019-01-12T10:17:27.319Z,1000.15
2019-01-12T10:18:27.333Z,1000.07
2019-01-12T10:19:27.351Z,1000.03
2019-01-12T10:20:27.369Z,1000.06
2019-01-12T10:21:27.390Z,999.97
2019-01-12T10:22:28.610Z,999.93
2019-01-12T10:23:27.421Z,999.95
2019-01-12T10:24:27.442Z,999.87
2019-01-12T10:25:27.458Z,999.95
2019-01-12T10:26:27.478Z,999.93
2019-01-12T10:27:27.493Z,999.92
2019-01-12T10:28:27.536Z,999.96
2019-01-12T10:29:27.525Z,999.88
2019-01-12T10:30:27.544Z,999.97
2019-01-12T10:31:27.589Z,999.91
2019-01-12T10:32:27.581Z,999.93
2019-01-12T10:33:27.600Z,999.9
2019-01-12T10:34:27.620Z,999.94
2019-01-12T10:35:27.633Z,999.93
2019-01-12T10:36:27.649Z,999.89
2019-01-12T10:37:27.668Z,999.93
2019-01-12T10:38:27.688Z,999.89
2019-01-12T10:39:27.703Z,999.89
2019-01-12T10:40:27.720Z,999.85
2019-01-12T10:41:27.738Z,999.83
2019-01-12T10:42:27.757Z,999.8
2019-01-12T10:43:27.775Z,999.79
2019-01-12T10:44:27.792Z,999.77
2019-01-12T10:45:27.809Z,999.71
2019-01-12T10:46:27.831Z,999.73
2019-01-12T10:47:27.844Z,999.71
2019-01-12T10:48:27.865Z,999.72
2019-01-12T10:49:27.879Z,999.62
2019-01-12T10:50:27.900Z,999.61
2019-01-12T10:51:27.915Z,999.62
2019-01-12T10:52:27.933Z,999.46
2019-01-12T10:53:27.949Z,999.44
2019-01-12T10:54:27.967Z,999.41
2019-01-12T10:55:27.983Z,999.38
2019-01-12T10:56:28.003Z,999.41
2019-01-12T10:57:28.020Z,999.38
2019-01-12T10:58:28.038Z,999.37
2019-01-12T10:59:28.055Z,999.31
2019-01-12T11:00:28.076Z,999.31
2019-01-12T11:01:28.091Z,999.3
2019-01-12T11:02:28.107Z,999.26
2019-01-12T11:03:28.125Z,999.24
2019-01-12T11:04:28.145Z,999.18
2019-01-12T11:05:28.163Z,999.13
2019-01-12T11:06:28.178Z,999.18
2019-01-12T11:07:28.198Z,999.15
2019-01-12T11:08:28.222Z,999.11
2019-01-12T11:09:28.233Z,999.11
2019-01-12T11:10:28.250Z,999.01
2019-01-12T11:11:28.308Z,999.03
2019-01-12T11:12:28.340Z,999.07
2019-01-12T11:13:28.309Z,998.99
2019-01-12T11:14:28.322Z,999.05
2019-01-12T11:15:28.339Z,998.88
2019-01-12T11:16:28.357Z,998.95
2019-01-12T11:17:28.373Z,998.88
2019-01-12T11:18:28.395Z,998.91
2019-01-12T11:19:28.411Z,998.88
2019-01-12T11:20:28.430Z,998.81
2019-01-12T11:21:28.445Z,998.87
2019-01-12T11:22:28.466Z,998.78
2019-01-12T11:23:28.481Z,998.8
2019-01-12T11:24:28.498Z,998.73
2019-01-12T11:25:28.516Z,998.74
2019-01-12T11:26:28.537Z,998.73
2019-01-12T11:27:28.551Z,998.71
2019-01-12T11:28:28.572Z,998.62
2019-01-12T11:29:28.590Z,998.61
2019-01-12T11:30:28.609Z,998.61
2019-01-12T11:31:28.622Z,998.55
2019-01-12T11:32:28.689Z,998.52
2019-01-12T11:33:28.656Z,998.51
2019-01-12T11:34:28.679Z,998.51
2019-01-12T11:35:28.693Z,998.46
2019-01-12T11:36:28.710Z,998.46
2019-01-12T11:37:28.776Z,998.42
2019-01-12T11:38:28.750Z,998.39
2019-01-12T11:39:28.762Z,998.37
2019-01-12T11:40:28.785Z,998.41
2019-01-12T11:41:28.803Z,998.45
2019-01-12T11:42:28.815Z,998.34
2019-01-12T11:43:28.835Z,998.4
2019-01-12T11:44:28.856Z,998.36
2019-01-12T11:45:28.870Z,998.32
2019-01-12T11:46:28.886Z,998.34
2019-01-12T11:47:28.904Z,998.31
2019-01-12T11:48:28.921Z,998.27
2019-01-12T11:49:28.938Z,998.3
2019-01-12T11:50:28.957Z,998.22
2019-01-12T11:51:28.974Z,998.25
2019-01-12T11:52:29.040Z,998.23
2019-01-12T11:53:29.010Z,998.2
2019-01-12T11:54:29.030Z,998.23
2019-01-12T11:55:29.043Z,998.17
2019-01-12T11:56:29.063Z,998.18
2019-01-12T11:57:29.129Z,998.14
2019-01-12T11:58:29.097Z,998.12
2019-01-12T11:59:29.114Z,998.15
2019-01-12T12:00:29.132Z,998.06
2019-01-12T12:01:29.148Z,998.03
2019-01-12T12:02:29.167Z,997.96
2019-01-12T12:03:29.185Z,997.95
2019-01-12T12:04:29.202Z,997.91
2019-01-12T12:05:29.224Z,997.91
2019-01-12T12:06:29.240Z,997.89
2019-01-12T12:07:29.254Z,997.87
2019-01-12T12:08:29.272Z,997.92
2019-01-12T12:09:29.293Z,997.85
2019-01-12T12:10:29.312Z,997.81
2019-01-12T12:11:29.456Z,997.78